Austin, Texas
Traffic Map
Current Weather Conditions
Austin, Texas
Few Clouds
Few Clouds
70°
Feels Like: 70°
Wind Chill: 70° Ceiling: Unl
Heat Index: 70° Visibility: 10mi
Dew Point: 68° Wind: 5mph
Humidity: 93% Direction: ° ()
Pressure: 29.97in Gusts: 0mph
Raw Report DataKATT 290551Z AUTO VRB04KT 10SM FEW120 21/20 A2997 RMK AO2 RAE17 SLP136 P0001 60046 T02110200 10239 20189 403440189 50005
Traffic Incident Summary
Active as of:
Severity:
Category:
InformationThere was an issue retrieving the traffic information for this location. Please try a different location or try again shortly.
Advertisements
Track Severe Weather on mobile